Time;durP1;ratioP1;P1;durP2;ratioP2;P2;SDS_P1;SDS_P2;PMS_P1;PMS_P2;Temp;Humidity;BMP_temperature;BMP_pressure;BME280_temperature;BME280_humidity;BME280_pressure;Samples;Min_cycle;Max_cycle;Signal;HPM_P1;HPM_P2
2022/05/29 00:01:22;;;;;;;10.27;6.30;;;13.90;99.90;;;;;;5037677;28;20033;-81
2022/05/29 00:03:49;;;;;;;13.25;6.40;;;13.90;99.90;;;;;;5019558;28;20025;-81
2022/05/29 00:06:15;;;;;;;15.18;6.85;;;13.80;99.90;;;;;;5037375;28;20076;-81
2022/05/29 00:08:43;;;;;;;8.95;6.55;;;13.80;99.90;;;;;;5037502;28;20460;-80
2022/05/29 00:11:12;;;;;;;13.70;6.63;;;13.80;99.90;;;;;;5037116;28;20088;-81
2022/05/29 00:13:37;;;;;;;9.93;7.45;;;13.80;99.90;;;;;;5019949;28;20120;-80
2022/05/29 00:16:03;;;;;;;13.32;7.30;;;13.70;99.90;;;;;;5036921;28;20104;-82
2022/05/29 00:18:29;;;;;;;10.32;6.78;;;13.60;99.90;;;;;;5037162;28;20076;-81
2022/05/29 00:20:56;;;;;;;10.02;7.30;;;13.60;99.90;;;;;;5037658;28;20025;-81
2022/05/29 00:23:24;;;;;;;12.48;7.75;;;13.60;99.90;;;;;;5036662;28;20408;-81
2022/05/29 00:25:52;;;;;;;14.43;7.85;;;13.60;99.90;;;;;;5019464;28;20030;-80
2022/05/29 00:28:19;;;;;;;19.70;7.35;;;13.60;99.90;;;;;;5036891;28;20429;-82
2022/05/29 00:30:45;;;;;;;14.15;7.82;;;13.60;99.90;;;;;;5036890;28;20037;-82
2022/05/29 00:33:12;;;;;;;8.77;6.15;;;13.60;99.90;;;;;;5019413;28;20083;-81
2022/05/29 00:35:39;;;;;;;12.32;7.53;;;13.70;99.90;;;;;;5036857;28;20022;-81
2022/05/29 00:38:06;;;;;;;11.10;5.30;;;13.70;99.90;;;;;;5036738;28;20025;-81
2022/05/29 00:40:38;;;;;;;9.73;5.80;;;13.70;99.90;;;;;;5037175;28;20029;-82
2022/05/29 00:43:04;;;;;;;8.27;6.20;;;13.70;99.90;;;;;;5037235;28;20033;-82
2022/05/29 00:45:38;;;;;;;11.38;6.30;;;13.70;99.90;;;;;;5018754;28;20124;-81
2022/05/29 00:48:04;;;;;;;16.15;6.45;;;13.70;99.90;;;;;;5036851;28;20040;-80
2022/05/29 00:50:30;;;;;;;9.90;6.13;;;13.70;99.90;;;;;;5018901;28;20037;-80
2022/05/29 00:52:56;;;;;;;7.25;5.53;;;13.60;99.90;;;;;;5018619;28;20048;-80
2022/05/29 00:55:26;;;;;;;10.60;6.60;;;13.70;99.90;;;;;;5036975;28;20398;-79
2022/05/29 00:58:01;;;;;;;12.27;6.53;;;13.70;99.90;;;;;;5018554;28;20025;-81
2022/05/29 01:00:30;;;;;;;10.75;6.40;;;13.80;99.90;;;;;;5036248;28;20439;-81
2022/05/29 01:02:58;;;;;;;9.93;6.05;;;13.70;99.90;;;;;;5018595;28;20060;-81
2022/05/29 01:05:27;;;;;;;8.93;6.53;;;13.80;99.90;;;;;;5018514;28;20076;-80
2022/05/29 01:08:05;;;;;;;8.32;7.10;;;13.70;99.90;;;;;;5036124;28;20482;-80
2022/05/29 01:10:49;;;;;;;8.00;5.43;;;13.80;99.90;;;;;;5035661;28;20029;-81
2022/05/29 01:13:49;;;;;;;12.75;6.25;;;13.70;99.90;;;;;;5018307;28;20391;-79
2022/05/29 01:16:17;;;;;;;9.32;5.47;;;13.60;99.90;;;;;;5036329;28;20029;-81
2022/05/29 01:19:37;;;;;;;10.95;5.47;;;13.50;99.90;;;;;;5035718;28;20026;-81
2022/05/29 01:22:20;;;;;;;15.73;5.90;;;13.60;99.90;;;;;;4994386;28;20030;-81
2022/05/29 01:25:12;;;;;;;11.23;5.43;;;13.60;99.90;;;;;;4994617;28;20037;-81
2022/05/29 01:28:01;;;;;;;9.85;5.57;;;13.60;99.90;;;;;;4994205;28;20027;-80
2022/05/29 01:30:31;;;;;;;9.88;6.22;;;13.60;99.90;;;;;;4994292;28;20042;-82
2022/05/29 01:33:12;;;;;;;9.23;5.80;;;13.70;99.90;;;;;;4994433;28;20077;-81
2022/05/29 01:35:56;;;;;;;12.20;5.38;;;13.70;99.90;;;;;;4994362;28;20038;-81
2022/05/29 01:38:40;;;;;;;11.73;5.50;;;13.60;99.90;;;;;;4994566;28;20117;-81
2022/05/29 01:41:28;;;;;;;9.88;6.25;;;13.70;99.90;;;;;;4977820;28;20417;-80
2022/05/29 01:44:32;;;;;;;10.32;5.55;;;13.70;99.90;;;;;;4994219;28;20038;-79
2022/05/29 01:47:07;;;;;;;8.88;5.60;;;13.70;99.90;;;;;;4935945;29;20047;-79
2022/05/29 01:49:44;;;;;;;15.32;6.40;;;13.80;99.90;;;;;;4936387;29;20486;-80
2022/05/29 01:52:19;;;;;;;9.20;5.88;;;13.80;99.90;;;;;;4920050;29;20036;-82
2022/05/29 01:55:08;;;;;;;7.10;5.53;;;13.80;99.90;;;;;;4937664;29;20031;-79
2022/05/29 01:57:37;;;;;;;9.35;5.65;;;13.80;99.90;;;;;;4954791;29;20035;-81
2022/05/29 02:00:14;;;;;;;12.65;6.68;;;13.80;99.90;;;;;;4955080;29;20034;-79
2022/05/29 02:03:04;;;;;;;14.18;6.13;;;13.80;99.90;;;;;;4938577;29;20114;-80
2022/05/29 02:05:36;;;;;;;17.13;5.88;;;13.80;99.90;;;;;;4955021;29;20031;-82
2022/05/29 02:08:21;;;;;;;10.23;5.65;;;13.80;99.90;;;;;;4938564;29;20094;-80
2022/05/29 02:11:10;;;;;;;15.80;6.40;;;13.80;99.90;;;;;;4938732;29;20054;-80
2022/05/29 02:13:45;;;;;;;11.80;6.47;;;13.80;99.90;;;;;;4954879;29;20078;-82
2022/05/29 02:16:22;;;;;;;16.55;6.75;;;13.80;99.90;;;;;;4954427;29;20078;-81
2022/05/29 02:18:53;;;;;;;12.45;6.65;;;13.80;99.90;;;;;;4954839;29;20393;-80
2022/05/29 02:21:36;;;;;;;15.05;7.40;;;13.70;99.90;;;;;;4937923;29;20071;-81
2022/05/29 02:24:04;;;;;;;;;;;13.70;99.90;;;;;;5035228;28;20080;-81
2022/05/29 02:26:37;;;;;;;15.65;7.43;;;13.70;99.90;;;;;;5034969;28;19909;-82
2022/05/29 02:29:08;;;;;;;12.32;6.78;;;13.70;99.90;;;;;;5034648;28;20132;-81
2022/05/29 02:31:41;;;;;;;11.82;7.00;;;13.60;99.90;;;;;;5034953;28;20025;-80
2022/05/29 02:34:32;;;;;;;12.25;8.07;;;13.60;99.90;;;;;;5034894;28;20518;-82
2022/05/29 02:37:21;;;;;;;9.77;8.30;;;13.70;99.90;;;;;;5034236;28;20460;-80
2022/05/29 02:40:14;;;;;;;13.48;8.77;;;13.80;99.90;;;;;;5017278;28;20057;-80
2022/05/29 02:43:06;;;;;;;16.55;8.55;;;13.80;99.90;;;;;;5027100;28;20049;-81
2022/05/29 02:45:39;;;;;;;13.55;8.73;;;13.70;99.90;;;;;;5034957;28;20026;-82
2022/05/29 02:48:10;;;;;;;10.98;8.07;;;13.70;99.90;;;;;;5034564;28;20032;-80
2022/05/29 02:50:50;;;;;;;15.60;8.02;;;13.70;99.90;;;;;;5016447;28;20036;-81
2022/05/29 02:53:16;;;;;;;18.85;9.30;;;13.70;99.90;;;;;;5034566;28;20048;-81
2022/05/29 02:55:44;;;;;;;11.05;7.68;;;13.70;99.90;;;;;;5034104;28;20388;-80
2022/05/29 02:58:23;;;;;;;14.13;7.80;;;13.70;99.90;;;;;;5034321;28;20368;-80
2022/05/29 03:01:17;;;;;;;13.70;7.80;;;13.80;99.90;;;;;;5034422;28;20029;-80
2022/05/29 03:04:10;;;;;;;16.10;7.13;;;13.80;99.90;;;;;;5034110;28;20104;-81
2022/05/29 03:06:39;;;;;;;14.98;7.00;;;13.80;99.90;;;;;;5034321;28;20032;-81
2022/05/29 03:09:19;;;;;;;9.48;7.32;;;13.80;99.90;;;;;;5033937;28;20060;-80
2022/05/29 03:11:46;;;;;;;11.85;7.43;;;13.80;99.90;;;;;;5033744;28;20144;-80
2022/05/29 03:14:33;;;;;;;12.07;7.57;;;13.80;99.90;;;;;;5033870;28;20022;-80
2022/05/29 03:17:37;;;;;;;15.85;7.72;;;13.70;99.90;;;;;;5016397;28;20411;-80
2022/05/29 03:20:28;;;;;;;14.05;8.40;;;13.70;99.90;;;;;;5033751;28;20029;-81
2022/05/29 03:23:19;;;;;;;17.52;7.75;;;13.80;99.90;;;;;;5034220;28;20028;-81
2022/05/29 03:25:49;;;;;;;14.57;7.90;;;13.80;99.90;;;;;;5033556;28;20025;-80
2022/05/29 03:28:50;;;;;;;16.33;8.90;;;13.80;99.90;;;;;;5033963;28;20026;-83
2022/05/29 03:31:22;;;;;;;18.88;9.77;;;13.80;99.90;;;;;;5016238;28;20040;-81
2022/05/29 03:33:49;;;;;;;13.57;8.77;;;13.80;99.90;;;;;;5033750;28;20029;-81
2022/05/29 03:36:15;;;;;;;18.15;9.80;;;13.80;99.90;;;;;;5033837;28;20156;-81
2022/05/29 03:38:42;;;;;;;16.00;9.68;;;13.80;99.90;;;;;;5033491;28;20018;-81
2022/05/29 03:41:21;;;;;;;20.55;10.43;;;13.80;99.90;;;;;;5016104;28;20056;-81
2022/05/29 03:43:46;;;;;;;18.73;12.52;;;13.80;99.90;;;;;;5033545;28;20036;-81
2022/05/29 03:46:12;;;;;;;15.05;11.35;;;13.80;99.90;;;;;;5033394;28;20029;-81
2022/05/29 03:48:39;;;;;;;18.75;9.30;;;13.80;99.90;;;;;;5034223;28;20041;-83
2022/05/29 03:51:08;;;;;;;18.52;10.15;;;13.90;99.90;;;;;;5033629;28;20030;-82
2022/05/29 03:53:35;;;;;;;15.05;9.85;;;13.80;99.90;;;;;;5033489;28;20036;-82
2022/05/29 03:56:01;;;;;;;18.38;9.60;;;13.90;99.90;;;;;;5015925;28;20522;-82
2022/05/29 03:58:27;;;;;;;23.48;9.50;;;13.90;99.90;;;;;;5033958;28;20029;-82
2022/05/29 04:00:53;;;;;;;14.35;8.90;;;14.00;99.90;;;;;;5033292;28;20072;-82
2022/05/29 04:03:19;;;;;;;14.05;8.63;;;14.00;99.90;;;;;;5033834;28;20031;-80
2022/05/29 04:05:45;;;;;;;25.20;8.77;;;14.00;99.90;;;;;;5033865;28;20021;-80
2022/05/29 04:13:44;;;;;;;15.63;7.65;;;14.00;99.90;;;;;;5033445;28;20032;-82
2022/05/29 04:16:11;;;;;;;8.63;5.65;;;14.00;99.90;;;;;;5033301;28;20036;-81
2022/05/29 04:18:37;;;;;;;10.68;5.43;;;13.90;99.90;;;;;;5033583;28;20025;-81
2022/05/29 04:21:05;;;;;;;6.13;5.40;;;13.90;99.90;;;;;;5033410;28;20028;-81
2022/05/29 04:23:31;;;;;;;11.60;5.60;;;13.90;99.90;;;;;;5033443;28;20022;-81
2022/05/29 04:25:57;;;;;;;11.35;5.72;;;14.00;99.90;;;;;;5015788;28;20026;-81
2022/05/29 04:28:23;;;;;;;18.42;6.28;;;14.00;99.90;;;;;;5033101;28;20375;-81
2022/05/29 04:30:48;;;;;;;9.90;4.82;;;14.10;99.90;;;;;;5015316;28;20057;-81
2022/05/29 04:33:15;;;;;;;10.75;5.93;;;14.10;99.90;;;;;;5033022;28;20026;-81
2022/05/29 04:35:43;;;;;;;8.55;5.28;;;14.10;99.90;;;;;;5032968;28;20033;-82
2022/05/29 04:38:10;;;;;;;12.73;6.07;;;14.20;99.90;;;;;;5033347;28;20029;-81
2022/05/29 04:40:40;;;;;;;10.40;5.25;;;14.20;99.90;;;;;;5033284;28;20026;-82
2022/05/29 04:43:06;;;;;;;8.40;5.30;;;14.20;99.90;;;;;;5033226;28;20109;-82
2022/05/29 04:45:32;;;;;;;8.15;4.40;;;14.20;99.90;;;;;;5018739;28;20163;-81
2022/05/29 04:47:58;;;;;;;15.02;4.80;;;14.20;99.90;;;;;;5036881;28;20108;-81
2022/05/29 04:50:24;;;;;;;10.00;4.88;;;14.20;99.90;;;;;;5036211;28;20546;-81
2022/05/29 04:52:50;;;;;;;9.18;4.45;;;14.30;99.90;;;;;;5036934;28;20037;-81
2022/05/29 04:55:17;;;;;;;8.75;5.60;;;14.30;99.90;;;;;;5036927;28;20029;-81
2022/05/29 04:57:43;;;;;;;11.73;4.72;;;14.40;99.90;;;;;;5018932;28;20442;-81
2022/05/29 05:00:10;;;;;;;10.20;4.35;;;14.40;99.90;;;;;;5036590;28;20040;-82
2022/05/29 05:02:36;;;;;;;5.00;4.18;;;14.40;99.90;;;;;;5019017;28;20025;-82
2022/05/29 05:05:02;;;;;;;11.05;4.75;;;14.40;99.90;;;;;;5036207;28;20097;-82
2022/05/29 05:07:28;;;;;;;7.13;4.60;;;14.50;99.90;;;;;;5018673;28;20036;-82
2022/05/29 05:09:54;;;;;;;10.25;5.88;;;14.50;99.90;;;;;;5036164;28;20025;-82
2022/05/29 05:12:19;;;;;;;10.90;5.45;;;14.50;99.90;;;;;;5036494;28;20053;-81
2022/05/29 05:14:45;;;;;;;11.38;5.25;;;14.50;99.90;;;;;;5036821;28;20033;-82
2022/05/29 05:17:12;;;;;;;7.10;4.80;;;14.60;99.90;;;;;;5036265;28;20049;-82
2022/05/29 05:19:37;;;;;;;7.95;3.80;;;14.50;99.90;;;;;;5018547;28;20112;-82
2022/05/29 05:22:05;;;;;;;11.10;4.72;;;14.40;99.90;;;;;;5035989;28;20064;-81
2022/05/29 05:24:33;;;;;;;9.75;4.57;;;14.50;99.90;;;;;;5018177;28;20141;-82
2022/05/29 05:26:59;;;;;;;5.90;4.47;;;14.40;99.90;;;;;;5035798;28;20095;-81
2022/05/29 05:29:26;;;;;;;8.82;4.72;;;14.50;99.90;;;;;;5035829;28;20452;-80
2022/05/29 05:31:51;;;;;;;7.30;4.90;;;14.50;99.90;;;;;;5018019;28;20052;-80
2022/05/29 05:34:17;;;;;;;6.43;4.60;;;14.70;99.90;;;;;;5035752;28;20476;-80
2022/05/29 05:36:43;;;;;;;8.23;4.70;;;14.70;99.90;;;;;;5036063;28;20101;-80
2022/05/29 05:39:09;;;;;;;11.07;5.82;;;14.70;99.90;;;;;;5035652;28;20029;-80
2022/05/29 05:41:35;;;;;;;9.05;5.38;;;14.70;99.90;;;;;;5035984;28;20032;-81
2022/05/29 05:44:01;;;;;;;13.68;5.63;;;14.70;99.90;;;;;;5036046;28;20022;-80
2022/05/29 05:46:27;;;;;;;9.20;5.55;;;14.70;99.90;;;;;;5035529;28;20052;-80
2022/05/29 05:48:54;;;;;;;9.68;6.40;;;14.80;99.90;;;;;;5018034;28;20029;-80
2022/05/29 05:51:19;;;;;;;12.57;6.03;;;14.70;99.90;;;;;;5035370;28;20056;-81
2022/05/29 05:53:45;;;;;;;14.10;6.95;;;14.80;99.90;;;;;;5017626;28;20029;-80
2022/05/29 05:56:13;;;;;;;11.52;6.22;;;14.90;99.90;;;;;;5034337;28;20464;-80
2022/05/29 05:58:40;;;;;;;13.25;6.35;;;14.90;99.90;;;;;;5035616;28;20033;-80
2022/05/29 06:01:09;;;;;;;11.93;6.80;;;14.90;99.90;;;;;;5035161;28;20033;-80
2022/05/29 06:03:35;;;;;;;14.65;7.22;;;15.00;99.90;;;;;;5035476;28;20026;-80
2022/05/29 06:06:01;;;;;;;13.73;6.72;;;15.10;99.90;;;;;;5035159;28;20545;-80
2022/05/29 06:08:27;;;;;;;18.30;11.02;;;15.00;99.90;;;;;;5035502;28;20030;-79
2022/05/29 06:10:53;;;;;;;10.63;6.55;;;15.00;99.90;;;;;;5035085;28;20056;-79
2022/05/29 06:13:19;;;;;;;13.65;7.50;;;15.10;99.90;;;;;;5017256;28;20033;-81
2022/05/29 06:15:46;;;;;;;11.65;6.55;;;15.10;99.90;;;;;;5035062;28;20052;-80
2022/05/29 06:18:13;;;;;;;11.45;6.10;;;15.10;99.90;;;;;;5035169;28;20055;-79
2022/05/29 11:19:21;;;;;;;15.63;12.13;;;22.20;81.60;;;;;;5071097;28;20414;-79
2022/05/29 11:22:08;;;;;;;13.98;11.07;;;21.90;81.60;;;;;;5069873;28;20033;-78
2022/05/29 11:24:40;;;;;;;12.68;10.35;;;21.90;81.30;;;;;;5071452;28;20032;-78
2022/05/29 11:27:40;;;;;;;12.55;11.35;;;21.80;80.80;;;;;;5070698;28;20025;-77
2022/05/29 11:30:18;;;;;;;13.68;11.85;;;21.60;83.20;;;;;;5069854;28;20024;-76
2022/05/29 11:33:21;;;;;;;12.85;10.93;;;21.60;85.90;;;;;;5069654;28;20041;-78
2022/05/29 11:36:04;;;;;;;18.48;10.82;;;21.80;84.70;;;;;;5069161;28;20467;-78
2022/05/29 11:38:48;;;;;;;11.95;10.45;;;21.70;82.10;;;;;;5066661;28;20071;-80
2022/05/29 11:41:24;;;;;;;13.73;10.65;;;21.40;79.20;;;;;;5067271;28;20211;-79
2022/05/29 11:44:25;;;;;;;13.07;10.60;;;21.20;79.10;;;;;;5065612;28;20017;-80
2022/05/29 11:52:55;;;;;;;17.05;11.07;;;20.40;82.60;;;;;;5027460;28;20033;-81
2022/05/29 11:55:25;;;;;;;15.55;11.30;;;20.30;82.20;;;;;;5027749;28;20531;-78
2022/05/29 11:58:16;;;;;;;15.65;11.75;;;20.20;83.80;;;;;;5027185;28;20037;-76
2022/05/29 12:01:40;;;;;;;13.88;9.68;;;20.30;88.20;;;;;;5017461;28;20033;-76
2022/05/29 12:04:30;;;;;;;12.80;9.32;;;20.20;83.00;;;;;;4968707;28;20027;-76
2022/05/29 12:07:10;;;;;;;9.88;8.88;;;20.10;85.60;;;;;;4969439;28;20043;-78
2022/05/29 12:09:52;;;;;;;14.45;8.88;;;20.10;90.50;;;;;;4969800;28;20089;-78
2022/05/29 12:12:27;;;;;;;13.20;9.10;;;20.20;89.00;;;;;;4969510;28;20215;-78
2022/05/29 12:15:19;;;;;;;10.65;8.15;;;20.50;93.00;;;;;;4969522;28;20107;-76
2022/05/29 12:17:59;;;;;;;10.32;9.20;;;21.20;90.60;;;;;;4968764;28;20050;-77
2022/05/29 12:20:46;;;;;;;9.93;8.30;;;21.30;86.80;;;;;;4960697;28;20033;-78
2022/05/29 12:23:24;;;;;;;11.93;8.85;;;21.60;89.70;;;;;;4994134;28;20032;-77
2022/05/29 12:26:06;;;;;;;9.90;8.25;;;21.70;81.70;;;;;;5027175;28;20439;-77
2022/05/29 12:28:53;;;;;;;;;;;21.80;85.60;;;;;;5020769;28;20025;-78
2022/05/29 12:31:22;;;;;;;9.38;7.53;;;21.90;84.00;;;;;;5012020;28;19905;-77
2022/05/29 12:33:49;;;;;;;10.45;7.50;;;21.60;75.10;;;;;;5014026;28;20026;-77
2022/05/29 12:36:29;;;;;;;9.82;7.25;;;21.70;80.80;;;;;;5014374;28;20479;-76
2022/05/29 12:39:18;;;;;;;9.45;6.50;;;21.70;79.40;;;;;;5046953;28;20036;-77
2022/05/29 12:41:54;;;;;;;13.18;6.85;;;22.00;77.70;;;;;;5054814;28;20029;-77
2022/05/29 12:44:40;;;;;;;13.25;6.72;;;22.50;79.90;;;;;;5054219;28;20031;-76
2022/05/29 12:47:09;;;;;;;9.98;7.38;;;22.60;76.50;;;;;;5054584;28;20053;-76
2022/05/29 12:49:47;;;;;;;7.60;6.70;;;22.60;75.60;;;;;;5054760;28;20021;-77
2022/05/29 12:52:44;;;;;;;8.73;7.07;;;22.70;73.30;;;;;;5053254;28;20030;-76
2022/05/29 12:55:25;;;;;;;8.65;7.13;;;22.70;72.70;;;;;;5047066;28;20052;-76
2022/05/29 12:58:23;;;;;;;9.23;7.63;;;22.70;75.70;;;;;;5053216;28;20062;-78
2022/05/29 13:01:01;;;;;;;9.93;7.40;;;22.80;76.40;;;;;;5052506;28;20013;-78
2022/05/29 13:03:42;;;;;;;12.63;7.15;;;22.80;72.70;;;;;;5052363;28;20075;-78
2022/05/29 13:06:35;;;;;;;9.88;6.88;;;22.90;72.60;;;;;;5052147;28;20051;-77
2022/05/29 13:09:12;;;;;;;9.48;6.80;;;22.80;72.30;;;;;;5055069;28;20096;-77
2022/05/29 13:11:46;;;;;;;12.30;8.25;;;22.70;70.50;;;;;;5055897;28;20017;-78
2022/05/29 13:14:16;;;;;;;9.90;7.28;;;22.70;75.50;;;;;;5055328;28;20021;-77
2022/05/29 13:16:44;;;;;;;14.23;7.80;;;22.70;72.80;;;;;;5054498;28;20057;-77
2022/05/29 13:19:17;;;;;;;10.25;6.82;;;;;;;;;;5054565;28;20021;-77
2022/05/29 13:22:05;;;;;;;8.85;7.20;;;22.90;70.10;;;;;;5054143;28;20112;-78
2022/05/29 13:24:44;;;;;;;8.82;7.63;;;22.70;69.10;;;;;;5055932;28;20021;-78
2022/05/29 13:27:13;;;;;;;9.18;7.50;;;22.80;74.00;;;;;;5055409;28;20025;-76
2022/05/29 13:29:41;;;;;;;7.90;7.20;;;22.70;71.50;;;;;;5055228;28;20421;-78
2022/05/29 13:32:13;;;;;;;9.07;7.55;;;22.60;71.40;;;;;;5055855;28;20478;-78
2022/05/29 13:34:46;;;;;;;11.25;6.85;;;22.40;73.40;;;;;;5054893;28;20025;-76
2022/05/29 13:37:46;;;;;;;6.53;4.97;;;22.30;71.00;;;;;;5055376;28;20061;-77
2022/05/29 13:40:20;;;;;;;7.80;5.40;;;22.10;72.30;;;;;;5054343;28;20520;-77
2022/05/29 13:43:07;;;;;;;6.97;5.70;;;22.20;72.10;;;;;;5054730;28;20021;-77
2022/05/29 13:45:54;;;;;;;6.43;5.20;;;22.40;77.90;;;;;;5043889;28;20115;-76
2022/05/29 13:48:30;;;;;;;8.90;5.45;;;22.30;71.80;;;;;;5054698;28;20024;-77
2022/05/29 13:51:11;;;;;;;12.40;7.40;;;22.10;73.60;;;;;;5055289;28;20025;-76
2022/05/29 13:53:40;;;;;;;12.07;9.90;;;21.90;74.00;;;;;;5055088;28;20363;-77
2022/05/29 13:56:16;;;;;;;9.40;6.65;;;21.60;78.10;;;;;;5054676;28;20025;-78
2022/05/29 14:04:50;;;;;;;16.35;7.88;;;21.00;81.40;;;;;;5055011;28;20477;-77
2022/05/29 14:07:22;;;;;;;8.73;6.20;;;20.90;82.40;;;;;;5054890;28;20110;-77
2022/05/29 14:10:21;;;;;;;8.70;6.45;;;20.80;84.00;;;;;;5054201;28;20021;-78
2022/05/29 14:12:58;;;;;;;10.50;6.38;;;20.80;85.00;;;;;;5055033;28;20033;-78
2022/05/29 14:15:35;;;;;;;9.77;6.68;;;20.70;87.50;;;;;;5054733;28;20462;-78
2022/05/29 14:18:11;;;;;;;9.18;7.20;;;20.60;90.00;;;;;;5053738;28;20128;-78
2022/05/29 14:20:44;;;;;;;10.75;6.10;;;20.60;93.40;;;;;;5054358;28;20021;-79
2022/05/29 14:23:39;;;;;;;12.35;6.03;;;20.50;92.30;;;;;;5054295;28;20060;-78
2022/05/29 14:26:57;;;;;;;13.10;5.60;;;20.40;93.60;;;;;;5054528;28;20052;-78
2022/05/29 14:29:47;;;;;;;9.38;4.78;;;20.20;93.60;;;;;;5042372;28;20060;-78
2022/05/29 14:32:31;;;;;;;9.73;5.80;;;20.00;94.80;;;;;;5054120;28;20048;-78
2022/05/29 14:35:11;;;;;;;7.97;5.60;;;19.90;96.10;;;;;;5054685;28;20077;-79
2022/05/29 14:38:04;;;;;;;10.32;5.80;;;19.90;98.30;;;;;;5052772;28;20017;-77
2022/05/29 14:40:33;;;;;;;14.20;5.28;;;19.80;99.40;;;;;;5053968;28;20425;-78
2022/05/29 14:43:09;;;;;;;10.23;6.22;;;19.70;98.00;;;;;;5052990;28;20029;-78
2022/05/29 14:45:36;;;;;;;8.65;5.07;;;19.60;99.80;;;;;;5053967;28;20017;-77
2022/05/29 14:48:37;;;;;;;11.43;5.93;;;19.50;99.90;;;;;;5053908;28;20025;-78
2022/05/29 14:51:11;;;;;;;9.07;4.75;;;19.50;99.90;;;;;;5053814;28;20055;-79
2022/05/29 14:53:50;;;;;;;8.60;5.22;;;19.50;99.90;;;;;;5054075;28;20030;-77
2022/05/29 14:56:38;;;;;;;7.85;5.00;;;19.40;99.90;;;;;;5054038;28;20025;-77
2022/05/29 14:59:20;;;;;;;7.70;4.68;;;19.40;99.90;;;;;;5053752;28;20078;-75
2022/05/29 15:01:54;;;;;;;6.90;4.00;;;19.30;99.90;;;;;;5053810;28;20075;-76
2022/05/29 15:04:43;;;;;;;11.63;3.95;;;19.30;99.90;;;;;;5053630;28;20029;-76
2022/05/29 15:10:30;;;;;;;6.63;3.47;;;19.30;99.90;;;;;;5053818;28;20028;-75
2022/05/29 15:13:06;;;;;;;10.40;3.72;;;19.40;99.90;;;;;;5053583;28;20021;-78
2022/05/29 15:15:34;;;;;;;5.30;3.42;;;19.50;99.90;;;;;;5053798;28;20032;-77
2022/05/29 15:18:10;;;;;;;6.32;3.20;;;19.60;98.50;;;;;;5053733;28;20049;-77
2022/05/29 15:26:13;;;;;;;8.48;7.18;;;19.70;99.90;;;;;;5053466;28;20028;-78
2022/05/29 15:28:44;;;;;;;5.22;3.40;;;19.60;99.90;;;;;;5053688;28;20025;-77
2022/05/29 15:31:14;;;;;;;7.55;4.15;;;19.50;99.90;;;;;;5053491;28;20094;-75
2022/05/29 15:34:01;;;;;;;7.28;4.10;;;19.50;99.90;;;;;;5053387;28;20082;-76
2022/05/29 15:37:11;;;;;;;7.85;4.18;;;19.40;99.90;;;;;;5053372;28;20362;-77
2022/05/29 15:39:40;;;;;;;8.68;4.32;;;19.30;99.90;;;;;;5045713;28;20036;-78
2022/05/29 15:42:26;;;;;;;7.47;4.38;;;19.30;99.90;;;;;;5053597;28;20019;-76
2022/05/29 15:45:43;;;;;;;8.93;4.55;;;19.40;99.90;;;;;;5053648;28;20108;-77
2022/05/29 15:48:32;;;;;;;6.72;4.82;;;19.70;99.90;;;;;;5014489;28;20037;-77
2022/05/29 15:51:18;;;;;;;9.02;5.00;;;19.90;99.90;;;;;;5014808;28;20029;-76
2022/05/29 15:54:05;;;;;;;13.02;5.47;;;20.20;99.90;;;;;;5030615;28;21071;-78
2022/05/29 15:56:40;;;;;;;12.25;5.20;;;20.40;99.90;;;;;;5030973;28;20030;-77
2022/05/29 15:59:24;;;;;;;9.88;5.75;;;20.50;99.90;;;;;;5030883;28;20498;-77
2022/05/29 16:02:05;;;;;;;7.47;5.22;;;20.50;99.90;;;;;;5030764;28;20031;-78
2022/05/29 16:04:51;;;;;;;7.97;5.60;;;20.20;99.90;;;;;;5016610;28;20080;-78
2022/05/29 16:07:38;;;;;;;12.45;8.57;;;20.00;99.90;;;;;;5034666;28;20136;-77
2022/05/29 16:10:15;;;;;;;15.45;6.30;;;19.90;99.90;;;;;;5034343;28;20123;-77
2022/05/29 16:12:52;;;;;;;11.27;6.13;;;19.80;99.90;;;;;;5034480;28;20037;-77
2022/05/29 16:15:37;;;;;;;9.07;6.20;;;19.70;99.90;;;;;;5034234;28;20049;-77
2022/05/29 16:18:29;;;;;;;10.68;6.65;;;19.70;99.90;;;;;;5034103;28;20048;-77
2022/05/29 16:20:59;;;;;;;9.10;6.90;;;19.60;99.90;;;;;;5034517;28;20506;-78
2022/05/29 16:23:49;;;;;;;12.93;6.68;;;19.50;99.90;;;;;;5041981;28;20025;-77
2022/05/29 16:26:22;;;;;;;11.82;7.43;;;19.40;99.90;;;;;;5056392;28;20013;-78
2022/05/29 16:29:09;;;;;;;13.82;7.22;;;19.30;99.90;;;;;;5056195;28;20025;-78
2022/05/29 16:31:45;;;;;;;8.32;7.43;;;19.20;99.90;;;;;;5055041;28;20021;-76
2022/05/29 16:34:52;;;;;;;9.38;6.65;;;19.10;99.90;;;;;;5055255;28;20024;-77
2022/05/29 16:48:55;;;;;;;10.85;6.82;;;19.10;99.90;;;;;;5056276;28;20047;-77
2022/05/29 16:51:40;;;;;;;11.77;7.43;;;19.10;99.90;;;;;;5055577;28;20021;-78
2022/05/29 16:54:43;;;;;;;11.30;7.78;;;19.10;99.90;;;;;;5056098;28;20021;-76
2022/05/29 16:57:23;;;;;;;13.63;7.25;;;19.10;99.90;;;;;;5055005;28;20052;-77
2022/05/29 17:00:01;;;;;;;12.85;7.47;;;19.00;99.90;;;;;;5055991;28;20021;-76
2022/05/29 17:03:07;;;;;;;10.63;7.30;;;19.00;99.90;;;;;;5056245;28;20017;-77
2022/05/29 17:05:37;;;;;;;11.57;6.93;;;19.00;99.90;;;;;;5055699;28;20021;-77
2022/05/29 17:08:15;;;;;;;11.68;7.20;;;18.90;99.90;;;;;;5054900;28;20029;-78
2022/05/29 17:10:58;;;;;;;13.93;7.82;;;18.90;99.90;;;;;;5055434;28;20017;-76
2022/05/29 17:13:24;;;;;;;11.73;7.72;;;18.90;99.90;;;;;;5054442;28;20021;-76
2022/05/29 17:15:53;;;;;;;10.27;7.50;;;18.80;99.90;;;;;;5055772;28;20108;-76
2022/05/29 17:18:19;;;;;;;12.40;7.00;;;18.70;99.90;;;;;;5055183;28;20068;-75
2022/05/29 17:20:59;;;;;;;13.55;8.57;;;18.60;99.90;;;;;;5055338;28;20028;-76
2022/05/29 17:23:51;;;;;;;15.30;9.15;;;18.60;99.90;;;;;;5055249;28;20070;-76
2022/05/29 17:26:24;;;;;;;15.75;8.48;;;18.50;99.90;;;;;;5054139;28;20029;-77
2022/05/29 17:29:07;;;;;;;13.02;7.85;;;18.40;99.90;;;;;;5054181;28;20037;-76
2022/05/29 17:31:36;;;;;;;11.15;7.90;;;18.30;99.90;;;;;;5055319;28;20495;-76
2022/05/29 17:34:12;;;;;;;15.90;8.70;;;18.30;99.90;;;;;;5054698;28;20027;-76
2022/05/29 17:36:50;;;;;;;9.88;7.78;;;18.30;99.90;;;;;;5055253;28;20040;-75
2022/05/29 17:39:35;;;;;;;11.95;7.97;;;18.20;99.90;;;;;;5054958;28;20139;-78
2022/05/29 17:42:01;;;;;;;12.27;7.82;;;18.10;99.90;;;;;;5054954;28;20044;-77
2022/05/29 17:44:27;;;;;;;9.90;7.82;;;18.10;99.90;;;;;;5055145;28;20391;-76
2022/05/29 17:47:08;;;;;;;16.30;9.10;;;18.00;99.90;;;;;;5055042;28;20359;-77
2022/05/29 17:49:53;;;;;;;11.98;8.30;;;17.90;99.90;;;;;;5053546;28;20021;-76
2022/05/29 17:52:40;;;;;;;17.45;11.88;;;17.90;99.90;;;;;;5054944;28;20021;-76
2022/05/29 17:55:11;;;;;;;17.50;9.55;;;17.90;99.90;;;;;;5054697;28;20021;-77
2022/05/29 17:57:41;;;;;;;14.73;7.88;;;17.80;99.90;;;;;;5054916;28;20061;-77
2022/05/29 18:00:08;;;;;;;15.23;10.68;;;17.80;99.90;;;;;;5054879;28;20017;-77
2022/05/29 18:02:34;;;;;;;15.20;8.38;;;17.80;99.90;;;;;;5054764;28;20021;-75
2022/05/29 18:05:01;;;;;;;17.38;12.55;;;17.80;99.90;;;;;;5054106;28;20079;-76
2022/05/29 18:07:27;;;;;;;13.02;7.90;;;17.70;99.90;;;;;;5054725;28;20055;-76
2022/05/29 18:09:53;;;;;;;13.25;7.78;;;17.70;99.90;;;;;;5054673;28;20017;-76
2022/05/29 18:12:25;;;;;;;14.38;7.72;;;17.70;99.90;;;;;;5053992;28;20031;-78
2022/05/29 18:14:51;;;;;;;14.93;8.75;;;17.70;99.90;;;;;;5054312;28;20021;-76
2022/05/29 18:17:18;;;;;;;12.35;7.82;;;17.70;99.90;;;;;;5054023;28;20041;-77
2022/05/29 18:19:44;;;;;;;15.85;8.88;;;17.70;99.90;;;;;;5054297;28;20025;-77
2022/05/29 18:22:10;;;;;;;17.83;8.13;;;17.60;99.90;;;;;;5054070;28;20409;-77
2022/05/29 18:24:36;;;;;;;15.20;8.27;;;17.60;99.90;;;;;;5054397;28;20090;-77
2022/05/29 18:27:10;;;;;;;20.08;9.23;;;17.60;99.90;;;;;;5053365;28;20367;-76
2022/05/29 18:29:36;;;;;;;13.93;7.90;;;17.60;99.90;;;;;;5054609;28;20059;-78
2022/05/29 18:32:03;;;;;;;15.20;7.72;;;17.60;99.90;;;;;;5053644;28;20029;-77
2022/05/29 18:34:30;;;;;;;12.20;7.75;;;17.60;99.90;;;;;;5054199;28;20082;-77
2022/05/29 18:36:56;;;;;;;15.82;6.85;;;17.60;99.90;;;;;;5054072;28;20033;-77
2022/05/29 18:39:22;;;;;;;11.07;7.32;;;17.60;99.90;;;;;;5052486;28;20478;-78
2022/05/29 18:41:47;;;;;;;11.35;7.10;;;17.50;99.90;;;;;;5052798;28;20031;-76
2022/05/29 18:44:13;;;;;;;11.23;7.25;;;17.50;99.90;;;;;;5052738;28;20025;-77
2022/05/29 18:46:43;;;;;;;15.95;7.75;;;17.50;99.90;;;;;;5053987;28;20032;-77
2022/05/29 18:49:16;;;;;;;10.23;7.00;;;17.50;99.90;;;;;;5053551;28;20024;-77
2022/05/29 18:51:42;;;;;;;15.82;8.30;;;17.50;99.90;;;;;;5053300;28;20021;-78
2022/05/29 18:54:08;;;;;;;13.27;8.65;;;17.50;99.90;;;;;;5053051;28;20024;-77
2022/05/29 18:56:34;;;;;;;16.70;8.07;;;17.50;99.90;;;;;;5053167;28;20031;-77
2022/05/29 18:59:01;;;;;;;12.98;7.90;;;17.50;99.90;;;;;;5052948;28;20072;-77
2022/05/29 19:01:27;;;;;;;20.98;9.38;;;17.50;99.90;;;;;;5052574;28;20040;-77